Terminal Aerodrome Forecast
Issued by NWS

Home | Current Version | Previous Version | Text Only | Print | Product List | Glossary On
Versions: 1 2 3 4 5 6 7 8 9 10 11 12 13 14 15 16 17
000
FTUS43 KBIS 241100
TAFMOT
TAF
KMOT 241120Z 2412/2512 31017G25KT P6SM VCSH BKN025
     FM241400 33014KT P6SM SCT035 BKN120
     FM242000 36008KT P6SM OVC110
     FM250000 03005KT P6SM BKN070 OVC090
     FM250300 07008KT 4SM -SN BKN035 OVC060
     FM250600 06009KT 1 1/2SM -SN BR OVC011=

USA.gov is the U.S. government's official web portal to all federal, state and local government web resources and services.